sensor_id;sensor_type;location;lat;lon;timestamp;pressure;altitude;pressure_sealevel;temperature;humidity
71917;BME280;59793;46.506;6.674;2023-07-13T00:02:04;97226.78;;;21.63;67.40
71917;BME280;59793;46.506;6.674;2023-07-13T00:04:30;97229.22;;;21.54;68.14
71917;BME280;59793;46.506;6.674;2023-07-13T00:06:55;97232.84;;;21.43;68.96
71917;BME280;59793;46.506;6.674;2023-07-13T00:09:20;97230.84;;;21.47;68.89
71917;BME280;59793;46.506;6.674;2023-07-13T00:11:50;97238.38;;;21.56;68.45
71917;BME280;59793;46.506;6.674;2023-07-13T00:14:16;97229.03;;;21.64;68.03
71917;BME280;59793;46.506;6.674;2023-07-13T00:16:41;97224.31;;;21.72;67.83
71917;BME280;59793;46.506;6.674;2023-07-13T00:19:08;97214.94;;;21.84;67.59
71917;BME280;59793;46.506;6.674;2023-07-13T00:21:33;97204.69;;;21.99;67.23
71917;BME280;59793;46.506;6.674;2023-07-13T00:23:59;97204.47;;;22.09;66.79
71917;BME280;59793;46.506;6.674;2023-07-13T00:26:26;97205.81;;;22.21;65.92
71917;BME280;59793;46.506;6.674;2023-07-13T00:28:51;97206.81;;;22.07;66.85
71917;BME280;59793;46.506;6.674;2023-07-13T00:31:16;97214.59;;;22.02;67.46
71917;BME280;59793;46.506;6.674;2023-07-13T00:33:42;97207.75;;;21.97;67.76
71917;BME280;59793;46.506;6.674;2023-07-13T00:36:07;97208.53;;;21.98;68.35
71917;BME280;59793;46.506;6.674;2023-07-13T00:38:33;97211.44;;;22.07;68.88
71917;BME280;59793;46.506;6.674;2023-07-13T00:40:58;97216.66;;;22.14;67.54
71917;BME280;59793;46.506;6.674;2023-07-13T00:43:25;97214.41;;;22.12;67.16
71917;BME280;59793;46.506;6.674;2023-07-13T00:48:24;97203.31;;;22.10;67.26
71917;BME280;59793;46.506;6.674;2023-07-13T00:50:52;97202.88;;;22.12;66.91
71917;BME280;59793;46.506;6.674;2023-07-13T00:53:18;97203.56;;;22.19;66.58
71917;BME280;59793;46.506;6.674;2023-07-13T00:55:45;97209.94;;;22.26;66.47
71917;BME280;59793;46.506;6.674;2023-07-13T00:58:10;97209.59;;;22.24;66.41
71917;BME280;59793;46.506;6.674;2023-07-13T01:00:36;97213.75;;;22.05;67.26
71917;BME280;59793;46.506;6.674;2023-07-13T01:03:02;97206.31;;;21.92;67.47
71917;BME280;59793;46.506;6.674;2023-07-13T01:05:29;97201.28;;;21.75;68.13
71917;BME280;59793;46.506;6.674;2023-07-13T01:07:56;97210.94;;;21.48;69.76
71917;BME280;59793;46.506;6.674;2023-07-13T01:10:22;97205.88;;;21.27;70.58
71917;BME280;59793;46.506;6.674;2023-07-13T01:12:47;97203.78;;;21.15;71.39
71917;BME280;59793;46.506;6.674;2023-07-13T01:17:56;97206.19;;;21.06;71.61
71917;BME280;59793;46.506;6.674;2023-07-13T01:20:22;97210.06;;;21.05;71.50
71917;BME280;59793;46.506;6.674;2023-07-13T01:22:47;97208.38;;;21.14;70.85
71917;BME280;59793;46.506;6.674;2023-07-13T01:25:13;97213.91;;;21.27;70.17
71917;BME280;59793;46.506;6.674;2023-07-13T01:27:38;97201.78;;;21.46;69.33
71917;BME280;59793;46.506;6.674;2023-07-13T01:30:06;97206.28;;;21.53;68.74
71917;BME280;59793;46.506;6.674;2023-07-13T01:32:31;97209.22;;;21.58;68.52
71917;BME280;59793;46.506;6.674;2023-07-13T01:34:57;97200.09;;;21.56;69.57
71917;BME280;59793;46.506;6.674;2023-07-13T01:37:24;97203.41;;;21.40;70.14
71917;BME280;59793;46.506;6.674;2023-07-13T01:39:49;97202.03;;;21.28;70.96
71917;BME280;59793;46.506;6.674;2023-07-13T01:42:15;97197.50;;;21.25;71.13
71917;BME280;59793;46.506;6.674;2023-07-13T01:44:40;97200.50;;;21.27;70.86
71917;BME280;59793;46.506;6.674;2023-07-13T01:47:05;97199.97;;;21.39;70.10
71917;BME280;59793;46.506;6.674;2023-07-13T01:49:30;97202.41;;;21.54;69.44
71917;BME280;59793;46.506;6.674;2023-07-13T01:51:56;97201.25;;;21.55;69.13
71917;BME280;59793;46.506;6.674;2023-07-13T01:54:21;97206.91;;;21.60;68.38
71917;BME280;59793;46.506;6.674;2023-07-13T01:56:46;97202.41;;;21.54;68.95
71917;BME280;59793;46.506;6.674;2023-07-13T01:59:11;97200.53;;;21.51;68.59
71917;BME280;59793;46.506;6.674;2023-07-13T02:01:36;97198.50;;;21.58;67.81
71917;BME280;59793;46.506;6.674;2023-07-13T02:04:02;97198.16;;;21.56;67.97
71917;BME280;59793;46.506;6.674;2023-07-13T02:06:27;97199.25;;;21.59;68.28
71917;BME280;59793;46.506;6.674;2023-07-13T02:08:53;97194.31;;;21.57;67.94
71917;BME280;59793;46.506;6.674;2023-07-13T02:11:18;97193.00;;;21.65;67.80
71917;BME280;59793;46.506;6.674;2023-07-13T02:13:43;97184.50;;;21.70;67.28
71917;BME280;59793;46.506;6.674;2023-07-13T02:16:09;97184.69;;;21.60;66.97
71917;BME280;59793;46.506;6.674;2023-07-13T02:18:34;97193.13;;;21.58;66.86
71917;BME280;59793;46.506;6.674;2023-07-13T02:20:59;97189.81;;;21.51;67.12
71917;BME280;59793;46.506;6.674;2023-07-13T02:23:24;97195.03;;;21.38;67.65
71917;BME280;59793;46.506;6.674;2023-07-13T02:25:54;97198.09;;;21.36;67.58
71917;BME280;59793;46.506;6.674;2023-07-13T02:28:19;97188.56;;;21.35;67.77
71917;BME280;59793;46.506;6.674;2023-07-13T02:30:44;97189.13;;;21.46;67.46
71917;BME280;59793;46.506;6.674;2023-07-13T02:33:09;97178.41;;;21.46;67.49
71917;BME280;59793;46.506;6.674;2023-07-13T02:35:35;97185.16;;;21.31;68.01
71917;BME280;59793;46.506;6.674;2023-07-13T02:38:00;97173.72;;;21.27;68.32
71917;BME280;59793;46.506;6.674;2023-07-13T02:40:25;97175.56;;;21.30;67.80
71917;BME280;59793;46.506;6.674;2023-07-13T02:42:51;97164.94;;;21.03;68.15
71917;BME280;59793;46.506;6.674;2023-07-13T02:45:16;97166.53;;;20.97;68.46
71917;BME280;59793;46.506;6.674;2023-07-13T02:47:41;97169.88;;;21.05;68.63
71917;BME280;59793;46.506;6.674;2023-07-13T02:50:07;97166.84;;;21.03;68.68
71917;BME280;59793;46.506;6.674;2023-07-13T02:52:33;97159.63;;;20.99;68.81
71917;BME280;59793;46.506;6.674;2023-07-13T02:54:58;97178.00;;;20.97;68.66
71917;BME280;59793;46.506;6.674;2023-07-13T02:57:23;97168.09;;;20.94;68.96
71917;BME280;59793;46.506;6.674;2023-07-13T02:59:48;97168.91;;;20.91;68.92
71917;BME280;59793;46.506;6.674;2023-07-13T03:02:14;97161.28;;;20.90;69.38
71917;BME280;59793;46.506;6.674;2023-07-13T03:04:40;97157.44;;;20.91;68.86
71917;BME280;59793;46.506;6.674;2023-07-13T03:07:06;97165.47;;;20.91;69.22
71917;BME280;59793;46.506;6.674;2023-07-13T03:09:32;97170.94;;;20.84;69.46
71917;BME280;59793;46.506;6.674;2023-07-13T03:11:58;97166.75;;;20.83;69.85
71917;BME280;59793;46.506;6.674;2023-07-13T03:14:23;97177.06;;;20.84;69.22
71917;BME280;59793;46.506;6.674;2023-07-13T03:16:48;97180.91;;;20.83;68.32
71917;BME280;59793;46.506;6.674;2023-07-13T03:19:14;97180.41;;;20.92;68.20
71917;BME280;59793;46.506;6.674;2023-07-13T03:21:40;97186.06;;;20.97;67.79
71917;BME280;59793;46.506;6.674;2023-07-13T03:24:06;97188.41;;;20.95;68.86
71917;BME280;59793;46.506;6.674;2023-07-13T03:26:31;97192.88;;;20.75;69.57
71917;BME280;59793;46.506;6.674;2023-07-13T03:28:56;97205.22;;;20.69;70.75
71917;BME280;59793;46.506;6.674;2023-07-13T03:31:24;97202.25;;;20.60;71.15
71917;BME280;59793;46.506;6.674;2023-07-13T03:33:50;97206.91;;;20.56;71.59
71917;BME280;59793;46.506;6.674;2023-07-13T03:36:16;97206.97;;;20.48;71.36
71917;BME280;59793;46.506;6.674;2023-07-13T03:38:44;97227.53;;;20.59;71.38
71917;BME280;59793;46.506;6.674;2023-07-13T03:41:11;97230.09;;;20.66;71.38
71917;BME280;59793;46.506;6.674;2023-07-13T03:43:36;97231.19;;;20.72;71.25
71917;BME280;59793;46.506;6.674;2023-07-13T03:46:01;97235.63;;;20.82;70.96
71917;BME280;59793;46.506;6.674;2023-07-13T03:48:26;97247.41;;;20.88;70.85
71917;BME280;59793;46.506;6.674;2023-07-13T03:50:52;97254.19;;;20.96;70.50
71917;BME280;59793;46.506;6.674;2023-07-13T03:53:17;97244.94;;;21.01;71.04
71917;BME280;59793;46.506;6.674;2023-07-13T03:55:44;97250.88;;;21.12;70.83
71917;BME280;59793;46.506;6.674;2023-07-13T04:00:53;97259.63;;;21.16;71.01
71917;BME280;59793;46.506;6.674;2023-07-13T04:03:19;97256.72;;;21.07;70.77
71917;BME280;59793;46.506;6.674;2023-07-13T04:05:44;97243.81;;;20.98;70.83
71917;BME280;59793;46.506;6.674;2023-07-13T04:08:09;97254.91;;;21.00;69.62
71917;BME280;59793;46.506;6.674;2023-07-13T04:10:34;97251.56;;;20.93;70.71
71917;BME280;59793;46.506;6.674;2023-07-13T04:13:00;97257.81;;;20.83;70.70
71917;BME280;59793;46.506;6.674;2023-07-13T04:15:27;97250.44;;;20.90;71.45
71917;BME280;59793;46.506;6.674;2023-07-13T04:17:52;97257.44;;;20.81;71.93
71917;BME280;59793;46.506;6.674;2023-07-13T04:20:17;97248.56;;;20.87;71.73
71917;BME280;59793;46.506;6.674;2023-07-13T04:22:44;97256.97;;;20.89;72.12
71917;BME280;59793;46.506;6.674;2023-07-13T04:25:10;97256.88;;;20.96;72.32
71917;BME280;59793;46.506;6.674;2023-07-13T04:27:35;97257.19;;;20.98;72.01
71917;BME280;59793;46.506;6.674;2023-07-13T04:30:00;97254.09;;;21.04;71.60
71917;BME280;59793;46.506;6.674;2023-07-13T04:32:25;97260.94;;;21.05;71.19
71917;BME280;59793;46.506;6.674;2023-07-13T04:34:51;97262.13;;;21.04;72.07
71917;BME280;59793;46.506;6.674;2023-07-13T04:37:18;97265.34;;;20.91;72.43
71917;BME280;59793;46.506;6.674;2023-07-13T04:39:43;97272.13;;;20.99;73.01
71917;BME280;59793;46.506;6.674;2023-07-13T04:42:08;97274.00;;;21.03;73.53
71917;BME280;59793;46.506;6.674;2023-07-13T04:44:33;97272.75;;;21.11;72.97
71917;BME280;59793;46.506;6.674;2023-07-13T04:46:59;97285.22;;;20.94;71.57
71917;BME280;59793;46.506;6.674;2023-07-13T04:49:24;97277.84;;;21.01;71.53
71917;BME280;59793;46.506;6.674;2023-07-13T04:51:49;97284.25;;;21.08;71.42
71917;BME280;59793;46.506;6.674;2023-07-13T04:54:14;97287.00;;;21.04;70.57
71917;BME280;59793;46.506;6.674;2023-07-13T04:56:40;97293.06;;;21.08;70.59
71917;BME280;59793;46.506;6.674;2023-07-13T04:59:05;97288.31;;;21.19;70.88
71917;BME280;59793;46.506;6.674;2023-07-13T05:01:32;97297.88;;;21.20;72.00
71917;BME280;59793;46.506;6.674;2023-07-13T05:03:57;97294.88;;;21.15;72.73
71917;BME280;59793;46.506;6.674;2023-07-13T05:06:24;97296.69;;;21.21;72.70
71917;BME280;59793;46.506;6.674;2023-07-13T05:08:49;97300.13;;;21.22;72.66
71917;BME280;59793;46.506;6.674;2023-07-13T05:11:14;97300.44;;;21.28;73.45
71917;BME280;59793;46.506;6.674;2023-07-13T05:13:39;97301.66;;;21.23;73.58
71917;BME280;59793;46.506;6.674;2023-07-13T05:16:05;97307.91;;;21.13;73.44
71917;BME280;59793;46.506;6.674;2023-07-13T05:18:33;97308.97;;;21.19;73.47
71917;BME280;59793;46.506;6.674;2023-07-13T05:21:03;97317.47;;;21.14;73.06
71917;BME280;59793;46.506;6.674;2023-07-13T05:23:29;97310.06;;;21.25;72.73
71917;BME280;59793;46.506;6.674;2023-07-13T05:25:55;97323.75;;;21.31;73.13
71917;BME280;59793;46.506;6.674;2023-07-13T05:28:29;97319.88;;;21.35;72.86
71917;BME280;59793;46.506;6.674;2023-07-13T05:30:55;97324.09;;;21.36;72.19
71917;BME280;59793;46.506;6.674;2023-07-13T05:33:20;97322.34;;;21.22;73.69
71917;BME280;59793;46.506;6.674;2023-07-13T05:35:45;97313.69;;;21.11;74.18
71917;BME280;59793;46.506;6.674;2023-07-13T05:38:11;97316.59;;;20.93;74.63
71917;BME280;59793;46.506;6.674;2023-07-13T05:40:36;97314.13;;;20.75;75.09
71917;BME280;59793;46.506;6.674;2023-07-13T05:43:02;97314.47;;;20.77;74.32
71917;BME280;59793;46.506;6.674;2023-07-13T05:45:27;97314.91;;;20.76;76.43
71917;BME280;59793;46.506;6.674;2023-07-13T05:47:52;97318.66;;;20.82;77.12
71917;BME280;59793;46.506;6.674;2023-07-13T05:50:17;97323.97;;;20.86;76.31
71917;BME280;59793;46.506;6.674;2023-07-13T05:52:43;97318.38;;;20.73;75.70
71917;BME280;59793;46.506;6.674;2023-07-13T05:55:08;97325.03;;;20.61;74.32
71917;BME280;59793;46.506;6.674;2023-07-13T05:57:33;97327.66;;;20.65;73.11
71917;BME280;59793;46.506;6.674;2023-07-13T05:59:58;97328.28;;;20.76;71.79
71917;BME280;59793;46.506;6.674;2023-07-13T06:02:24;97329.38;;;20.82;72.89
71917;BME280;59793;46.506;6.674;2023-07-13T06:04:50;97328.34;;;21.03;75.56
71917;BME280;59793;46.506;6.674;2023-07-13T06:07:17;97343.16;;;21.11;73.06
71917;BME280;59793;46.506;6.674;2023-07-13T06:09:42;97333.97;;;20.82;74.80
71917;BME280;59793;46.506;6.674;2023-07-13T06:12:07;97343.56;;;20.79;72.43
71917;BME280;59793;46.506;6.674;2023-07-13T06:14:33;97351.34;;;20.66;73.50
71917;BME280;59793;46.506;6.674;2023-07-13T06:16:58;97360.47;;;20.72;73.91
71917;BME280;59793;46.506;6.674;2023-07-13T06:19:23;97365.13;;;20.65;71.98
71917;BME280;59793;46.506;6.674;2023-07-13T06:21:48;97364.34;;;20.68;72.54
71917;BME280;59793;46.506;6.674;2023-07-13T06:24:14;97357.38;;;20.74;73.31
71917;BME280;59793;46.506;6.674;2023-07-13T06:26:39;97372.72;;;20.70;73.58
71917;BME280;59793;46.506;6.674;2023-07-13T06:29:04;97395.03;;;20.56;74.13
71917;BME280;59793;46.506;6.674;2023-07-13T06:31:30;97406.09;;;20.62;75.89
71917;BME280;59793;46.506;6.674;2023-07-13T06:33:55;97404.28;;;20.51;77.41
71917;BME280;59793;46.506;6.674;2023-07-13T06:36:20;97403.03;;;20.60;77.32
71917;BME280;59793;46.506;6.674;2023-07-13T06:38:45;97386.09;;;20.70;77.29
71917;BME280;59793;46.506;6.674;2023-07-13T06:41:11;97383.81;;;20.72;78.35
71917;BME280;59793;46.506;6.674;2023-07-13T06:43:36;97388.59;;;20.88;78.09
71917;BME280;59793;46.506;6.674;2023-07-13T06:46:01;97393.78;;;21.02;76.52
71917;BME280;59793;46.506;6.674;2023-07-13T06:48:26;97399.09;;;21.06;76.65
71917;BME280;59793;46.506;6.674;2023-07-13T06:50:52;97404.66;;;21.22;76.61
71917;BME280;59793;46.506;6.674;2023-07-13T06:53:18;97402.69;;;21.26;77.66
71917;BME280;59793;46.506;6.674;2023-07-13T06:55:44;97404.19;;;21.27;77.61
71917;BME280;59793;46.506;6.674;2023-07-13T06:58:10;97405.66;;;21.35;76.37
71917;BME280;59793;46.506;6.674;2023-07-13T07:00:35;97413.41;;;21.57;75.87
71917;BME280;59793;46.506;6.674;2023-07-13T07:03:00;97408.34;;;21.62;76.30
71917;BME280;59793;46.506;6.674;2023-07-13T07:05:26;97415.41;;;21.53;74.90
71917;BME280;59793;46.506;6.674;2023-07-13T07:07:51;97410.03;;;21.53;75.57
71917;BME280;59793;46.506;6.674;2023-07-13T07:10:17;97408.72;;;21.64;75.78
71917;BME280;59793;46.506;6.674;2023-07-13T07:12:42;97415.91;;;21.71;75.34
71917;BME280;59793;46.506;6.674;2023-07-13T07:15:08;97420.66;;;21.60;73.83
71917;BME280;59793;46.506;6.674;2023-07-13T07:17:33;97428.53;;;21.43;75.52
71917;BME280;59793;46.506;6.674;2023-07-13T07:19:58;97424.81;;;21.34;75.87
71917;BME280;59793;46.506;6.674;2023-07-13T07:22:24;97424.03;;;21.33;75.75
71917;BME280;59793;46.506;6.674;2023-07-13T07:24:52;97421.81;;;21.28;75.50
71917;BME280;59793;46.506;6.674;2023-07-13T07:27:17;97427.16;;;21.28;76.35
71917;BME280;59793;46.506;6.674;2023-07-13T07:29:42;97431.00;;;21.27;76.36
71917;BME280;59793;46.506;6.674;2023-07-13T07:32:08;97427.88;;;21.32;76.54
71917;BME280;59793;46.506;6.674;2023-07-13T07:34:33;97417.81;;;21.43;76.49
71917;BME280;59793;46.506;6.674;2023-07-13T07:37:00;97423.63;;;21.65;74.63
71917;BME280;59793;46.506;6.674;2023-07-13T07:39:26;97432.44;;;21.66;74.30
71917;BME280;59793;46.506;6.674;2023-07-13T07:41:51;97419.44;;;21.91;74.82
71917;BME280;59793;46.506;6.674;2023-07-13T07:44:16;97421.28;;;22.22;71.63
71917;BME280;59793;46.506;6.674;2023-07-13T07:46:41;97410.88;;;22.47;72.21
71917;BME280;59793;46.506;6.674;2023-07-13T07:49:07;97407.53;;;22.63;71.26
71917;BME280;59793;46.506;6.674;2023-07-13T07:51:32;97423.41;;;22.54;70.12
71917;BME280;59793;46.506;6.674;2023-07-13T07:53:57;97424.03;;;22.41;70.10
71917;BME280;59793;46.506;6.674;2023-07-13T07:56:22;97415.25;;;22.14;70.06
71917;BME280;59793;46.506;6.674;2023-07-13T07:58:48;97425.25;;;21.86;72.18
71917;BME280;59793;46.506;6.674;2023-07-13T08:01:13;97410.88;;;21.73;72.76
71917;BME280;59793;46.506;6.674;2023-07-13T08:03:38;97415.69;;;21.85;72.79
71917;BME280;59793;46.506;6.674;2023-07-13T08:06:04;97422.47;;;21.93;72.41
71917;BME280;59793;46.506;6.674;2023-07-13T08:08:29;97419.66;;;21.77;71.86
71917;BME280;59793;46.506;6.674;2023-07-13T08:10:54;97435.38;;;21.75;71.35
71917;BME280;59793;46.506;6.674;2023-07-13T08:13:19;97432.03;;;21.67;72.05
71917;BME280;59793;46.506;6.674;2023-07-13T08:15:45;97439.44;;;21.60;72.33
71917;BME280;59793;46.506;6.674;2023-07-13T08:18:11;97437.16;;;21.85;72.65
71917;BME280;59793;46.506;6.674;2023-07-13T08:20:37;97431.25;;;21.70;73.22
71917;BME280;59793;46.506;6.674;2023-07-13T08:23:03;97432.25;;;21.80;72.03
71917;BME280;59793;46.506;6.674;2023-07-13T08:25:28;97443.78;;;21.77;71.12
71917;BME280;59793;46.506;6.674;2023-07-13T08:27:55;97441.34;;;21.59;71.51
71917;BME280;59793;46.506;6.674;2023-07-13T08:30:20;97447.22;;;21.78;71.67
71917;BME280;59793;46.506;6.674;2023-07-13T08:32:45;97456.41;;;21.80;71.34
71917;BME280;59793;46.506;6.674;2023-07-13T08:35:10;97447.13;;;22.08;70.13
71917;BME280;59793;46.506;6.674;2023-07-13T08:37:36;97440.88;;;22.18;69.44
71917;BME280;59793;46.506;6.674;2023-07-13T08:40:01;97434.19;;;22.30;69.81
71917;BME280;59793;46.506;6.674;2023-07-13T08:45:14;97444.28;;;22.46;69.39
71917;BME280;59793;46.506;6.674;2023-07-13T08:47:46;97447.09;;;22.82;66.90
71917;BME280;59793;46.506;6.674;2023-07-13T08:50:14;97443.56;;;22.85;66.49
71917;BME280;59793;46.506;6.674;2023-07-13T08:52:40;97449.22;;;22.71;66.13
71917;BME280;59793;46.506;6.674;2023-07-13T08:55:12;97447.25;;;22.28;67.69
71917;BME280;59793;46.506;6.674;2023-07-13T08:57:38;97456.00;;;22.56;67.75
71917;BME280;59793;46.506;6.674;2023-07-13T09:00:05;97453.50;;;22.45;67.41
71917;BME280;59793;46.506;6.674;2023-07-13T09:05:15;97451.22;;;22.43;67.30
71917;BME280;59793;46.506;6.674;2023-07-13T09:07:52;97450.69;;;22.52;66.94
71917;BME280;59793;46.506;6.674;2023-07-13T09:10:21;97454.13;;;22.76;66.72
71917;BME280;59793;46.506;6.674;2023-07-13T09:15:30;97442.59;;;23.55;63.83
71917;BME280;59793;46.506;6.674;2023-07-13T09:17:57;97443.84;;;23.71;64.27
71917;BME280;59793;46.506;6.674;2023-07-13T09:22:49;97449.16;;;23.18;65.09
71917;BME280;59793;46.506;6.674;2023-07-13T09:25:21;97445.38;;;23.32;63.55
71917;BME280;59793;46.506;6.674;2023-07-13T09:27:48;97449.63;;;23.13;64.95
71917;BME280;59793;46.506;6.674;2023-07-13T09:32:43;97450.44;;;23.10;64.14
71917;BME280;59793;46.506;6.674;2023-07-13T09:35:10;97444.25;;;23.13;64.37
71917;BME280;59793;46.506;6.674;2023-07-13T09:37:36;97446.66;;;23.27;64.73
71917;BME280;59793;46.506;6.674;2023-07-13T09:40:02;97447.44;;;23.08;66.09
71917;BME280;59793;46.506;6.674;2023-07-13T09:42:30;97454.09;;;23.20;63.91
71917;BME280;59793;46.506;6.674;2023-07-13T09:44:57;97460.50;;;23.06;65.89
71917;BME280;59793;46.506;6.674;2023-07-13T09:47:24;97457.47;;;23.04;65.88
71917;BME280;59793;46.506;6.674;2023-07-13T09:49:57;97462.50;;;23.02;66.66
71917;BME280;59793;46.506;6.674;2023-07-13T09:52:23;97463.13;;;23.29;64.77
71917;BME280;59793;46.506;6.674;2023-07-13T09:54:49;97466.06;;;23.55;63.91
71917;BME280;59793;46.506;6.674;2023-07-13T09:57:16;97464.34;;;23.45;63.66
71917;BME280;59793;46.506;6.674;2023-07-13T09:59:46;97462.88;;;23.80;63.63
71917;BME280;59793;46.506;6.674;2023-07-13T10:05:07;97477.84;;;23.61;62.19
71917;BME280;59793;46.506;6.674;2023-07-13T10:07:39;97477.41;;;23.82;61.73
71917;BME280;59793;46.506;6.674;2023-07-13T10:10:13;97473.97;;;23.82;62.45
71917;BME280;59793;46.506;6.674;2023-07-13T10:12:39;97479.38;;;24.15;61.10
71917;BME280;59793;46.506;6.674;2023-07-13T10:15:04;97475.28;;;24.10;61.42
71917;BME280;59793;46.506;6.674;2023-07-13T10:17:37;97476.50;;;24.38;58.61
71917;BME280;59793;46.506;6.674;2023-07-13T10:20:03;97472.56;;;24.59;59.11
71917;BME280;59793;46.506;6.674;2023-07-13T10:24:55;97478.28;;;24.61;59.02
71917;BME280;59793;46.506;6.674;2023-07-13T10:27:23;97474.69;;;24.97;56.81
71917;BME280;59793;46.506;6.674;2023-07-13T10:29:53;97472.31;;;24.99;57.02
71917;BME280;59793;46.506;6.674;2023-07-13T10:32:21;97470.28;;;25.03;57.79
71917;BME280;59793;46.506;6.674;2023-07-13T10:34:49;97476.03;;;25.47;55.81
71917;BME280;59793;46.506;6.674;2023-07-13T10:37:19;97468.25;;;25.07;57.03
71917;BME280;59793;46.506;6.674;2023-07-13T10:39:45;97476.75;;;24.76;56.81
71917;BME280;59793;46.506;6.674;2023-07-13T10:42:11;97473.72;;;24.74;57.97
71917;BME280;59793;46.506;6.674;2023-07-13T10:44:40;97478.09;;;24.85;56.05
71917;BME280;59793;46.506;6.674;2023-07-13T10:47:06;97475.06;;;24.83;55.54
71917;BME280;59793;46.506;6.674;2023-07-13T10:49:33;97471.41;;;24.60;56.41
71917;BME280;59793;46.506;6.674;2023-07-13T10:52:00;97482.41;;;24.66;56.87
71917;BME280;59793;46.506;6.674;2023-07-13T10:54:34;97483.81;;;24.87;55.70
71917;BME280;59793;46.506;6.674;2023-07-13T10:57:07;97481.50;;;24.56;57.38
71917;BME280;59793;46.506;6.674;2023-07-13T10:59:34;97486.63;;;25.12;55.02
71917;BME280;59793;46.506;6.674;2023-07-13T11:04:29;97478.56;;;25.92;53.06
71917;BME280;59793;46.506;6.674;2023-07-13T11:07:10;97484.94;;;25.98;51.55
71917;BME280;59793;46.506;6.674;2023-07-13T11:12:06;97484.41;;;26.16;51.61
71917;BME280;59793;46.506;6.674;2023-07-13T11:22:46;97476.41;;;26.00;51.05
71917;BME280;59793;46.506;6.674;2023-07-13T11:27:51;97483.13;;;26.08;50.53
71917;BME280;59793;46.506;6.674;2023-07-13T11:30:21;97484.34;;;26.42;49.56
71917;BME280;59793;46.506;6.674;2023-07-13T11:32:49;97482.44;;;26.30;48.92
71917;BME280;59793;46.506;6.674;2023-07-13T11:35:24;97474.09;;;26.50;49.72
71917;BME280;59793;46.506;6.674;2023-07-13T11:37:51;97472.69;;;26.45;50.13
71917;BME280;59793;46.506;6.674;2023-07-13T11:40:17;97466.34;;;26.74;48.95
71917;BME280;59793;46.506;6.674;2023-07-13T11:42:42;97471.72;;;26.52;48.30
71917;BME280;59793;46.506;6.674;2023-07-13T11:45:20;97459.56;;;26.09;49.04
71917;BME280;59793;46.506;6.674;2023-07-13T11:47:48;97464.53;;;26.10;49.70
71917;BME280;59793;46.506;6.674;2023-07-13T11:50:20;97457.41;;;26.04;48.83
71917;BME280;59793;46.506;6.674;2023-07-13T11:52:51;97457.50;;;26.13;48.29
71917;BME280;59793;46.506;6.674;2023-07-13T11:55:19;97454.91;;;26.22;48.14
71917;BME280;59793;46.506;6.674;2023-07-13T11:57:47;97458.19;;;26.39;47.75
71917;BME280;59793;46.506;6.674;2023-07-13T12:00:17;97446.38;;;26.93;48.35
71917;BME280;59793;46.506;6.674;2023-07-13T12:02:44;97446.47;;;26.67;46.42
71917;BME280;59793;46.506;6.674;2023-07-13T12:05:13;97435.28;;;26.56;46.81
71917;BME280;59793;46.506;6.674;2023-07-13T12:07:39;97437.22;;;25.83;47.53
71917;BME280;59793;46.506;6.674;2023-07-13T12:12:34;97426.66;;;26.49;47.35
71917;BME280;59793;46.506;6.674;2023-07-13T12:14:59;97436.06;;;26.44;47.63
71917;BME280;59793;46.506;6.674;2023-07-13T12:17:25;97420.50;;;26.48;47.45
71917;BME280;59793;46.506;6.674;2023-07-13T12:19:51;97427.34;;;27.19;46.14
71917;BME280;59793;46.506;6.674;2023-07-13T12:22:18;97423.16;;;27.58;45.38
71917;BME280;59793;46.506;6.674;2023-07-13T12:24:44;97416.03;;;27.42;44.20
71917;BME280;59793;46.506;6.674;2023-07-13T12:27:18;97417.25;;;27.19;44.49
71917;BME280;59793;46.506;6.674;2023-07-13T12:29:49;97415.31;;;26.98;45.01
71917;BME280;59793;46.506;6.674;2023-07-13T12:32:17;97421.09;;;26.87;46.73
71917;BME280;59793;46.506;6.674;2023-07-13T12:34:56;97408.69;;;26.77;44.53
71917;BME280;59793;46.506;6.674;2023-07-13T12:37:21;97412.78;;;26.59;45.92
71917;BME280;59793;46.506;6.674;2023-07-13T12:39:47;97420.97;;;26.68;46.28
71917;BME280;59793;46.506;6.674;2023-07-13T12:44:40;97416.44;;;26.65;46.57
71917;BME280;59793;46.506;6.674;2023-07-13T12:47:06;97414.47;;;26.66;45.61
71917;BME280;59793;46.506;6.674;2023-07-13T12:49:39;97411.84;;;26.75;44.70
71917;BME280;59793;46.506;6.674;2023-07-13T12:52:10;97408.75;;;26.64;44.21
71917;BME280;59793;46.506;6.674;2023-07-13T12:54:39;97402.97;;;26.75;46.54
71917;BME280;59793;46.506;6.674;2023-07-13T12:57:05;97405.88;;;27.02;45.53
71917;BME280;59793;46.506;6.674;2023-07-13T12:59:34;97402.47;;;26.89;44.81
71917;BME280;59793;46.506;6.674;2023-07-13T13:02:01;97408.53;;;26.93;45.28
71917;BME280;59793;46.506;6.674;2023-07-13T13:04:27;97412.75;;;27.16;41.32
71917;BME280;59793;46.506;6.674;2023-07-13T13:07:00;97404.81;;;27.22;39.86
71917;BME280;59793;46.506;6.674;2023-07-13T13:09:26;97412.59;;;27.20;39.67
71917;BME280;59793;46.506;6.674;2023-07-13T13:11:51;97412.66;;;27.29;38.43
71917;BME280;59793;46.506;6.674;2023-07-13T13:14:17;97408.16;;;27.04;40.32
71917;BME280;59793;46.506;6.674;2023-07-13T13:16:45;97408.81;;;27.17;40.27
71917;BME280;59793;46.506;6.674;2023-07-13T13:19:21;97402.72;;;27.04;37.69
71917;BME280;59793;46.506;6.674;2023-07-13T13:21:47;97413.28;;;27.11;39.43
71917;BME280;59793;46.506;6.674;2023-07-13T13:24:16;97409.03;;;27.23;38.13
71917;BME280;59793;46.506;6.674;2023-07-13T13:26:41;97409.72;;;27.45;37.80
71917;BME280;59793;46.506;6.674;2023-07-13T13:29:14;97414.13;;;27.52;37.26
71917;BME280;59793;46.506;6.674;2023-07-13T13:31:40;97410.84;;;27.57;37.92
71917;BME280;59793;46.506;6.674;2023-07-13T13:34:09;97405.50;;;27.75;36.59
71917;BME280;59793;46.506;6.674;2023-07-13T13:36:34;97405.41;;;27.97;37.08
71917;BME280;59793;46.506;6.674;2023-07-13T13:39:00;97398.50;;;28.05;35.92
71917;BME280;59793;46.506;6.674;2023-07-13T13:41:27;97402.41;;;27.95;37.05
71917;BME280;59793;46.506;6.674;2023-07-13T13:43:52;97400.56;;;27.83;38.15